North Conway, New Hampshire
Current Conditions -  °F | °C
As of 8:54 AM on Wednesday 28 Jan 2015 (Local Time) from KIZG Reporting Station
Overcast Overcast  
Wind Chill:   Ceiling: 4500
Heat Index: 16°   Visibility: 10mi
Dew Point:   Wind: 9mph
Humidity: 54%   Direction: 340°NNW
Pressure: 29.89"   Gusts: NA
Location:  44.05°N, 71.13°W
Report Text: KIZG 281354Z AUTO 34008KT 10SM OVC045 M09/M17 A2989 RMK AO2 SLP130 T10891167
Loading
Personal Weather Stations






























Interactive Weather Map New forecast layout! Learn more

10-Day Weather Forecast

Advertisements
Track Severe Weather on mobile